Time;durP1;ratioP1;P1;durP2;ratioP2;P2;SDS_P1;SDS_P2;PMS_P1;PMS_P2;Temp;Humidity;BMP_temperature;BMP_pressure;BME280_temperature;BME280_humidity;BME280_pressure;Samples;Min_cycle;Max_cycle;Signal;HPM_P1;HPM_P2
2022/10/17 00:02:17;;;;;;;25.80;15.10;;;;;;;;;;4947070;28;20042;-65
2022/10/17 00:04:43;;;;;;;19.60;13.55;;;;;;;;;;4946427;28;20046;-65
2022/10/17 00:07:08;;;;;;;26.80;13.98;;;;;;;;;;4949015;28;20035;-66
2022/10/17 00:09:34;;;;;;;23.75;14.40;;;;;;;;;;4942800;28;20069;-66
2022/10/17 00:12:01;;;;;;;18.90;13.38;;;;;;;;;;4946934;28;20046;-66
2022/10/17 00:14:27;;;;;;;23.00;14.45;;;;;;;;;;4949461;28;20359;-65
2022/10/17 00:16:53;;;;;;;24.60;14.68;;;;;;;;;;4945110;28;20091;-64
2022/10/17 00:19:19;;;;;;;31.23;16.55;;;;;;;;;;4955849;28;20039;-65
2022/10/17 00:21:44;;;;;;;27.73;16.15;;;;;;;;;;4949348;28;20115;-65
2022/10/17 00:24:10;;;;;;;25.02;15.43;;;;;;;;;;4955729;28;20383;-64
2022/10/17 00:26:36;;;;;;;22.80;15.98;;;;;;;;;;4952500;28;20043;-65
2022/10/17 00:29:02;;;;;;;25.95;16.13;;;;;;;;;;4947262;28;20039;-66
2022/10/17 00:31:28;;;;;;;23.42;15.27;;;;;;;;;;4953506;28;20036;-65
2022/10/17 00:33:54;;;;;;;21.75;15.25;;;;;;;;;;4947734;28;20094;-65
2022/10/17 00:36:23;;;;;;;23.83;15.20;;;;;;;;;;4955529;28;20037;-64
2022/10/17 00:38:57;;;;;;;24.85;15.23;;;;;;;;;;4949011;28;20035;-64
2022/10/17 00:41:31;;;;;;;23.70;14.43;;;;;;;;;;4956361;28;20041;-65
2022/10/17 00:44:07;;;;;;;38.20;16.77;;;;;;;;;;4949275;28;20058;-66
2022/10/17 00:46:37;;;;;;;29.77;15.65;;;;;;;;;;4948943;28;20027;-66
2022/10/17 00:49:09;;;;;;;28.23;16.77;;;;;;;;;;4950718;28;20038;-64
2022/10/17 00:51:47;;;;;;;26.02;15.38;;;;;;;;;;4950460;28;20054;-64
2022/10/17 00:54:16;;;;;;;23.70;14.20;;;;;;;;;;4949126;28;20043;-65
2022/10/17 00:56:43;;;;;;;18.75;13.60;;;;;;;;;;4950861;28;20126;-65
2022/10/17 00:59:12;;;;;;;20.88;14.07;;;;;;;;;;4953311;28;20422;-65
2022/10/17 01:01:45;;;;;;;20.42;12.85;;;;;;;;;;4951737;28;20497;-64
2022/10/17 01:04:12;;;;;;;17.02;12.93;;;;;;;;;;4954375;28;20040;-65
2022/10/17 01:06:38;;;;;;;23.15;13.60;;;;;;;;;;4952511;28;20090;-65
2022/10/17 01:09:04;;;;;;;23.02;13.18;;;;;;;;;;4952756;28;20039;-64
2022/10/17 01:11:38;;;;;;;28.85;14.65;;;;;;;;;;4956160;28;20023;-64
2022/10/17 01:14:13;;;;;;;21.05;14.55;;;;;;;;;;4954363;28;20063;-65
2022/10/17 01:16:42;;;;;;;20.65;13.13;;;;;;;;;;4952150;28;20039;-63
2022/10/17 01:19:25;;;;;;;19.80;12.52;;;;;;;;;;4954063;28;20031;-66
2022/10/17 01:21:59;;;;;;;22.88;12.82;;;;;;;;;;4947578;28;20550;-64
2022/10/17 01:24:48;;;;;;;23.55;12.95;;;;;;;;;;4948448;28;20067;-66
2022/10/17 01:27:35;;;;;;;20.20;12.57;;;;;;;;;;4955625;28;20494;-64
2022/10/17 01:30:01;;;;;;;21.30;12.43;;;;;;;;;;4952452;28;20039;-66
2022/10/17 01:32:35;;;;;;;19.27;12.20;;;;;;;;;;4955252;28;20078;-65
2022/10/17 01:35:36;;;;;;;18.45;12.30;;;;;;;;;;4952261;28;20039;-65
2022/10/17 01:38:17;;;;;;;16.90;11.18;;;;;;;;;;4950192;28;20039;-64
2022/10/17 01:41:04;;;;;;;18.23;11.95;;;;;;;;;;4952063;28;20102;-65
2022/10/17 01:43:38;;;;;;;16.33;10.63;;;;;;;;;;4956180;28;20123;-64
2022/10/17 01:46:27;;;;;;;17.02;11.80;;;;;;;;;;4952701;28;20586;-66
2022/10/17 01:48:56;;;;;;;21.02;13.38;;;;;;;;;;4952002;28;20083;-65
2022/10/17 01:51:32;;;;;;;18.52;12.50;;;;;;;;;;4950997;28;20500;-65
2022/10/17 01:54:03;;;;;;;16.10;10.57;;;;;;;;;;4949290;28;20039;-64
2022/10/17 01:56:31;;;;;;;18.83;12.80;;;;;;;;;;4945357;28;20035;-65
2022/10/17 01:59:04;;;;;;;17.60;12.65;;;;;;;;;;4954650;28;20089;-64
2022/10/17 02:01:32;;;;;;;16.58;12.50;;;;;;;;;;4961330;28;20079;-64
2022/10/17 02:04:01;;;;;;;15.13;11.43;;;;;;;;;;4951733;28;20039;-64
2022/10/17 02:06:27;;;;;;;16.48;11.45;;;;;;;;;;4945870;28;20125;-64
2022/10/17 02:08:54;;;;;;;15.02;11.18;;;;;;;;;;4951310;28;20509;-64
2022/10/17 02:11:22;;;;;;;18.17;11.07;;;;;;;;;;4947419;28;20485;-63
2022/10/17 02:14:03;;;;;;;19.98;12.20;;;;;;;;;;4955127;28;20067;-66
2022/10/17 02:16:48;;;;;;;16.13;11.93;;;;;;;;;;4951210;28;20102;-65
2022/10/17 02:19:19;;;;;;;23.38;13.25;;;;;;;;;;4952925;28;20032;-65
2022/10/17 02:21:59;;;;;;;19.25;12.45;;;;;;;;;;4954495;28;20138;-65
2022/10/17 02:24:50;;;;;;;16.42;11.98;;;;;;;;;;4954819;28;20163;-65
2022/10/17 02:27:40;;;;;;;17.02;11.73;;;;;;;;;;4950379;28;20050;-66
2022/10/17 02:30:27;;;;;;;17.92;12.07;;;;;;;;;;4945568;28;20039;-66
2022/10/17 02:33:06;;;;;;;16.65;11.73;;;;;;;;;;4951099;28;20031;-65
2022/10/17 02:35:37;;;;;;;19.17;12.50;;;;;;;;;;4953962;28;20035;-65
2022/10/17 02:38:05;;;;;;;18.65;11.85;;;;;;;;;;4951891;28;20032;-65
2022/10/17 02:40:31;;;;;;;16.05;11.07;;;;;;;;;;4953083;28;20023;-67
2022/10/17 02:42:59;;;;;;;20.80;11.45;;;;;;;;;;4953679;28;20093;-65
2022/10/17 02:45:29;;;;;;;22.38;11.57;;;;;;;;;;4960714;28;20027;-65
2022/10/17 02:48:04;;;;;;;21.65;12.55;;;;;;;;;;4949459;28;20031;-70
2022/10/17 02:51:04;;;;;;;20.65;12.60;;;;;;;;;;4944943;28;20024;-66
2022/10/17 02:54:05;;;;;;;26.75;12.65;;;;;;;;;;4948340;28;20044;-65
2022/10/17 02:56:41;;;;;;;17.85;11.95;;;;;;;;;;4953873;28;20035;-65
2022/10/17 02:59:11;;;;;;;16.63;11.52;;;;;;;;;;4966086;28;20550;-65
2022/10/17 03:01:37;;;;;;;18.20;11.77;;;;;;;;;;4950581;28;20042;-64
2022/10/17 03:04:08;;;;;;;18.00;11.52;;;;;;;;;;4940449;28;20042;-64
2022/10/17 03:06:34;;;;;;;23.30;13.02;;;;;;;;;;4947386;28;20707;-65
2022/10/17 03:09:00;;;;;;;18.30;13.40;;;;;;;;;;4948848;28;20103;-65
2022/10/17 03:11:26;;;;;;;19.92;11.30;;;;;;;;;;4948201;28;20086;-66
2022/10/17 03:13:52;;;;;;;16.17;10.60;;;;;;;;;;4944865;28;20059;-65
2022/10/17 03:16:18;;;;;;;14.45;10.73;;;;;;;;;;4933758;29;20024;-64
2022/10/17 03:18:44;;;;;;;19.85;11.13;;;;;;;;;;4947535;28;20449;-65
2022/10/17 03:21:10;;;;;;;19.48;12.07;;;;;;;;;;4953914;28;20047;-65
2022/10/17 03:23:36;;;;;;;23.92;12.45;;;;;;;;;;4952791;29;20094;-65
2022/10/17 03:26:05;;;;;;;15.30;10.90;;;;;;;;;;4953094;29;20590;-64
2022/10/17 03:28:32;;;;;;;17.00;11.82;;;;;;;;;;4934518;28;20052;-64
2022/10/17 03:30:59;;;;;;;17.08;10.73;;;;;;;;;;4914434;29;20044;-67
2022/10/17 03:33:26;;;;;;;18.27;11.98;;;;;;;;;;4915703;29;20578;-65
2022/10/17 03:35:52;;;;;;;19.52;11.85;;;;;;;;;;4914748;29;20127;-65
2022/10/17 03:38:18;;;;;;;15.50;11.82;;;;;;;;;;4914305;29;20043;-65
2022/10/17 03:40:44;;;;;;;17.58;10.30;;;;;;;;;;4913473;29;20024;-66
2022/10/17 03:43:10;;;;;;;19.10;12.27;;;;;;;;;;4914080;29;20036;-66
2022/10/17 03:45:38;;;;;;;18.50;12.10;;;;;;;;;;4914268;29;20126;-67
2022/10/17 03:48:04;;;;;;;20.13;12.85;;;;;;;;;;4913693;29;20552;-67
2022/10/17 03:50:30;;;;;;;21.73;12.85;;;;;;;;;;4913816;29;20032;-66
2022/10/17 03:52:57;;;;;;;27.83;13.98;;;;;;;;;;4913557;29;20036;-65
2022/10/17 03:55:23;;;;;;;22.90;14.00;;;;;;;;;;4914187;29;20032;-68
2022/10/17 03:57:49;;;;;;;19.95;13.68;;;;;;;;;;4914036;29;20391;-68
2022/10/17 04:00:18;;;;;;;18.08;12.40;;;;;;;;;;4911823;29;20127;-70
2022/10/17 04:02:53;;;;;;;21.35;14.05;;;;;;;;;;4908572;29;20036;-66
2022/10/17 04:05:19;;;;;;;18.88;12.75;;;;;;;;;;4894624;29;20039;-66
2022/10/17 04:07:45;;;;;;;19.73;13.05;;;;;;;;;;4894312;29;20044;-67
2022/10/17 04:10:13;;;;;;;21.73;13.30;;;;;;;;;;4894476;29;20044;-68
2022/10/17 04:12:39;;;;;;;24.15;14.15;;;;;;;;;;4894874;29;20040;-70
2022/10/17 04:15:06;;;;;;;35.75;15.38;;;;;;;;;;4894622;29;20400;-66
2022/10/17 04:17:32;;;;;;;18.98;13.45;;;;;;;;;;4922644;29;20123;-66
2022/10/17 04:19:58;;;;;;;19.45;11.93;;;;;;;;;;4898318;29;20127;-67
2022/10/17 04:22:23;;;;;;;20.30;13.02;;;;;;;;;;4901883;29;20184;-68
2022/10/17 04:24:50;;;;;;;23.10;13.30;;;;;;;;;;4907559;29;20036;-65
2022/10/17 04:27:26;;;;;;;17.25;12.55;;;;;;;;;;4903772;29;20032;-65
2022/10/17 04:29:53;;;;;;;19.15;12.25;;;;;;;;;;4894532;29;20037;-63
2022/10/17 04:32:22;;;;;;;21.60;12.95;;;;;;;;;;4900144;29;20080;-64
2022/10/17 04:35:01;;;;;;;34.00;13.60;;;;;;;;;;4913925;29;20047;-67
2022/10/17 04:37:28;;;;;;;37.28;14.70;;;;;;;;;;4913811;29;20403;-65
2022/10/17 04:39:55;;;;;;;18.40;11.85;;;;;;;;;;4912362;29;20039;-66
2022/10/17 04:42:20;;;;;;;15.13;11.30;;;;;;;;;;4904037;29;20036;-66
2022/10/17 04:44:48;;;;;;;22.75;12.45;;;;;;;;;;4903899;29;20391;-66
2022/10/17 04:47:16;;;;;;;22.42;11.80;;;;;;;;;;4895401;29;20032;-67
2022/10/17 04:49:42;;;;;;;18.77;11.70;;;;;;;;;;4895657;29;20469;-67
2022/10/17 04:52:14;;;;;;;18.80;12.32;;;;;;;;;;4898683;29;20040;-66
2022/10/17 04:54:44;;;;;;;20.60;11.85;;;;;;;;;;4901600;29;20104;-66
2022/10/17 04:57:12;;;;;;;21.30;13.60;;;;;;;;;;4907905;29;20052;-65
2022/10/17 04:59:39;;;;;;;23.80;11.98;;;;;;;;;;4903280;29;20576;-65
2022/10/17 05:02:26;;;;;;;18.58;12.63;;;;;;;;;;4899185;29;20036;-65
2022/10/17 05:04:52;;;;;;;22.90;12.02;;;;;;;;;;4898453;29;20040;-64
2022/10/17 05:07:19;;;;;;;21.27;13.27;;;;;;;;;;4903623;29;20408;-65
2022/10/17 05:09:52;;;;;;;18.80;12.38;;;;;;;;;;4898086;29;20091;-65
2022/10/17 05:12:18;;;;;;;26.48;13.52;;;;;;;;;;4898113;29;20048;-65
2022/10/17 05:14:45;;;;;;;22.67;14.07;;;;;;;;;;4901753;29;20063;-65
2022/10/17 05:17:11;;;;;;;18.70;14.48;;;;;;;;;;4910794;29;20067;-65
2022/10/17 05:19:37;;;;;;;20.73;11.30;;;;;;;;;;4917063;29;20040;-64
2022/10/17 05:22:05;;;;;;;22.40;12.60;;;;;;;;;;4916694;29;20323;-67
2022/10/17 05:24:31;;;;;;;20.63;11.93;;;;;;;;;;4916771;29;20568;-66
2022/10/17 05:26:57;;;;;;;16.70;12.65;;;;;;;;;;4909315;29;20119;-66
2022/10/17 05:29:23;;;;;;;18.77;12.32;;;;;;;;;;4899488;29;20043;-64
2022/10/17 05:31:54;;;;;;;21.13;12.35;;;;;;;;;;4898093;29;20029;-66
2022/10/17 05:34:20;;;;;;;23.10;12.85;;;;;;;;;;4898198;29;20044;-65
2022/10/17 05:36:46;;;;;;;16.23;10.38;;;;;;;;;;4898449;29;20503;-65
2022/10/17 05:39:18;;;;;;;23.58;12.13;;;;;;;;;;4898225;29;20388;-65
2022/10/17 05:41:45;;;;;;;13.82;10.00;;;;;;;;;;4898750;29;20385;-67
2022/10/17 05:44:12;;;;;;;23.52;11.07;;;;;;;;;;4898006;29;20040;-66
2022/10/17 05:46:48;;;;;;;18.80;10.43;;;;;;;;;;4897642;29;20033;-66
2022/10/17 05:49:14;;;;;;;15.63;9.07;;;;;;;;;;4897733;29;20080;-66
2022/10/17 05:51:40;;;;;;;14.90;9.52;;;;;;;;;;4897453;29;20048;-65
2022/10/17 05:54:06;;;;;;;18.20;10.65;;;;;;;;;;4897872;29;20080;-65
2022/10/17 05:56:34;;;;;;;18.38;8.40;;;;;;;;;;4912825;29;20115;-67
2022/10/17 05:59:00;;;;;;;22.60;9.05;;;;;;;;;;4916489;29;20032;-66
2022/10/17 06:01:41;;;;;;;14.40;8.50;;;;;;;;;;4916529;29;20047;-65
2022/10/17 06:04:07;;;;;;;15.75;7.80;;;;;;;;;;4916535;29;20067;-67
2022/10/17 06:06:36;;;;;;;18.27;8.88;;;;;;;;;;4916420;29;20036;-66
2022/10/17 06:09:03;;;;;;;10.38;7.38;;;;;;;;;;4912563;29;20040;-67
2022/10/17 06:11:33;;;;;;;15.77;7.78;;;;;;;;;;4912218;29;20092;-67
2022/10/17 06:13:59;;;;;;;11.30;7.78;;;;;;;;;;4897396;29;20476;-66
2022/10/17 06:16:28;;;;;;;9.85;7.20;;;;;;;;;;4896533;29;20044;-66
2022/10/17 06:18:54;;;;;;;12.30;8.15;;;;;;;;;;4897089;29;20103;-70
2022/10/17 06:21:25;;;;;;;12.70;7.85;;;;;;;;;;4906886;29;20372;-69
2022/10/17 06:23:55;;;;;;;17.17;8.57;;;;;;;;;;4915610;29;20040;-68
2022/10/17 06:26:27;;;;;;;12.77;7.97;;;;;;;;;;4909014;29;20099;-67
2022/10/17 06:28:54;;;;;;;16.85;8.02;;;;;;;;;;4902256;29;20421;-69
2022/10/17 06:31:20;;;;;;;17.30;7.20;;;;;;;;;;4897948;29;20028;-67
2022/10/17 06:33:46;;;;;;;16.52;9.05;;;;;;;;;;4901383;29;20054;-71
2022/10/17 06:36:13;;;;;;;20.48;8.73;;;;;;;;;;4915345;29;20494;-70
2022/10/17 06:38:40;;;;;;;21.20;9.60;;;;;;;;;;4916464;29;20028;-68
2022/10/17 06:41:18;;;;;;;13.25;8.02;;;;;;;;;;4911510;29;20040;-67
2022/10/17 06:43:46;;;;;;;11.57;8.48;;;;;;;;;;4902801;29;20035;-68
2022/10/17 06:46:30;;;;;;;20.00;9.68;;;;;;;;;;4904749;29;20479;-68
2022/10/17 06:49:03;;;;;;;13.23;8.50;;;;;;;;;;4900484;29;20480;-71
2022/10/17 06:51:55;;;;;;;16.20;7.85;;;;;;;;;;4904044;29;20048;-68
2022/10/17 06:54:29;;;;;;;13.65;8.00;;;;;;;;;;4903512;29;20068;-70
2022/10/17 06:57:13;;;;;;;11.55;8.27;;;;;;;;;;4904804;29;20055;-67
2022/10/17 06:59:49;;;;;;;10.43;6.93;;;;;;;;;;4911051;29;20139;-72
2022/10/17 07:02:22;;;;;;;13.80;8.13;;;;;;;;;;4911311;29;20059;-69
2022/10/17 07:04:48;;;;;;;14.43;8.32;;;;;;;;;;4895854;29;20036;-67
2022/10/17 07:07:14;;;;;;;15.95;8.57;;;;;;;;;;4896629;29;20148;-67
2022/10/17 07:09:40;;;;;;;13.27;8.18;;;;;;;;;;4896072;29;20044;-68
2022/10/17 07:12:07;;;;;;;15.02;8.00;;;;;;;;;;4899350;29;20460;-66
2022/10/17 07:14:34;;;;;;;13.27;8.55;;;;;;;;;;4900535;29;20040;-68
2022/10/17 07:17:00;;;;;;;14.43;8.88;;;;;;;;;;4902553;29;20043;-76
2022/10/17 07:19:30;;;;;;;12.35;8.70;;;;;;;;;;4895775;29;20547;-69
2022/10/17 07:21:56;;;;;;;13.60;9.05;;;;;;;;;;4905284;29;20084;-66
2022/10/17 07:24:22;;;;;;;12.40;8.77;;;;;;;;;;4908537;29;20484;-66
2022/10/17 07:27:01;;;;;;;14.73;8.77;;;;;;;;;;4894125;29;20051;-69
2022/10/17 07:29:28;;;;;;;13.00;9.50;;;;;;;;;;4894520;29;20056;-69
2022/10/17 07:32:07;;;;;;;12.95;8.63;;;;;;;;;;4895490;29;20052;-71
2022/10/17 07:34:34;;;;;;;14.52;8.68;;;;;;;;;;4895573;29;21030;-68
2022/10/17 07:37:00;;;;;;;13.98;8.13;;;;;;;;;;4897759;29;20063;-70
2022/10/17 07:39:27;;;;;;;12.38;8.32;;;;;;;;;;4913946;29;20036;-70
2022/10/17 07:41:53;;;;;;;12.07;7.70;;;;;;;;;;4912320;29;20043;-69
2022/10/17 07:44:20;;;;;;;13.13;7.15;;;;;;;;;;4900569;29;20032;-68
2022/10/17 07:46:49;;;;;;;15.60;8.35;;;;;;;;;;4911331;29;20492;-70
2022/10/17 07:49:15;;;;;;;11.95;8.75;;;;;;;;;;4913941;29;20033;-69
2022/10/17 07:51:41;;;;;;;14.40;8.32;;;;;;;;;;4913699;29;20506;-68
2022/10/17 07:54:07;;;;;;;14.18;10.07;;;;;;;;;;4915709;29;20467;-69
2022/10/17 07:56:33;;;;;;;12.35;9.23;;;;;;;;;;4915777;29;20080;-73
2022/10/17 07:58:59;;;;;;;18.42;9.43;;;;;;;;;;4914950;29;20036;-68
2022/10/17 08:01:27;;;;;;;18.65;10.05;;;;;;;;;;4914141;29;20111;-70
2022/10/17 08:03:52;;;;;;;13.43;8.48;;;;;;;;;;4914413;29;20175;-70
2022/10/17 08:06:18;;;;;;;14.85;8.68;;;;;;;;;;4915063;29;20052;-69
2022/10/17 08:08:44;;;;;;;13.38;7.90;;;;;;;;;;4915500;29;20082;-69
2022/10/17 08:11:13;;;;;;;18.38;8.20;;;;;;;;;;4915541;29;20032;-71
2022/10/17 08:13:39;;;;;;;16.08;7.75;;;;;;;;;;4915549;29;20179;-70
2022/10/17 08:16:09;;;;;;;11.95;7.00;;;;;;;;;;4914275;29;20043;-71
2022/10/17 08:18:37;;;;;;;13.20;8.18;;;;;;;;;;4914110;29;20115;-70
2022/10/17 08:21:07;;;;;;;9.48;7.57;;;;;;;;;;4915145;29;20045;-69
2022/10/17 08:23:33;;;;;;;11.35;6.22;;;;;;;;;;4914813;29;20432;-69
2022/10/17 08:26:00;;;;;;;14.05;7.97;;;;;;;;;;4915950;29;20448;-69
2022/10/17 08:28:26;;;;;;;11.05;7.28;;;;;;;;;;4915561;29;20532;-69
2022/10/17 08:30:52;;;;;;;9.23;6.25;;;;;;;;;;4914049;29;20124;-68
2022/10/17 08:33:17;;;;;;;11.07;6.00;;;;;;;;;;4915915;29;20344;-70
2022/10/17 08:35:43;;;;;;;10.10;6.22;;;;;;;;;;4915874;29;20115;-68
2022/10/17 08:38:09;;;;;;;10.15;5.50;;;;;;;;;;4917192;29;20060;-71
2022/10/17 08:40:37;;;;;;;12.18;6.07;;;;;;;;;;4919184;29;20127;-69
2022/10/17 08:43:41;;;;;;;6.85;5.65;;;;;;;;;;4916026;29;20037;-71
2022/10/17 08:46:07;;;;;;;;;;;;;;;;;;4909451;29;20398;-72
2022/10/17 08:48:39;;;;;;;9.15;6.22;;;;;;;;;;4907971;29;19922;-68
2022/10/17 08:51:08;;;;;;;11.27;6.22;;;;;;;;;;4909321;29;20420;-70
2022/10/17 08:53:50;;;;;;;8.00;5.35;;;;;;;;;;4909071;29;20057;-76
2022/10/17 08:56:24;;;;;;;12.38;5.95;;;;;;;;;;4905008;29;20036;-69
2022/10/17 08:58:50;;;;;;;12.10;5.38;;;;;;;;;;4903932;29;20534;-75
2022/10/17 09:01:33;;;;;;;9.23;5.22;;;;;;;;;;4933194;29;20028;-74
2022/10/17 09:04:20;;;;;;;8.40;4.03;;;;;;;;;;4937829;29;20558;-69
2022/10/17 09:06:53;;;;;;;10.32;4.78;;;;;;;;;;4937286;29;20039;-75
2022/10/17 09:09:33;;;;;;;;;;;;;;;;;;4937879;29;20036;-69
2022/10/17 09:12:14;;;;;;;6.63;4.38;;;;;;;;;;4937386;29;20034;-69
2022/10/17 09:15:12;;;;;;;17.40;5.65;;;;;;;;;;4937013;29;20463;-71
2022/10/17 09:17:58;;;;;;;9.20;5.97;;;;;;;;;;4937253;29;20064;-70
2022/10/17 09:20:35;;;;;;;8.43;5.15;;;;;;;;;;4936841;29;20036;-70
2022/10/17 09:23:30;;;;;;;8.48;4.25;;;;;;;;;;4937135;29;20043;-69
2022/10/17 09:25:58;;;;;;;12.45;4.53;;;;;;;;;;4936844;29;20051;-70
2022/10/17 09:28:32;;;;;;;9.52;4.90;;;;;;;;;;4936993;29;20087;-71
2022/10/17 09:31:11;;;;;;;10.13;4.82;;;;;;;;;;4937027;29;20044;-70
2022/10/17 09:33:43;;;;;;;10.73;5.72;;;;;;;;;;4937451;29;20394;-70
2022/10/17 09:36:15;;;;;;;;;;;;;;;;;;4937008;29;20103;-69
2022/10/17 09:38:44;;;;;;;11.95;5.50;;;;;;;;;;4935946;29;19919;-72
2022/10/17 09:41:17;;;;;;;9.23;5.20;;;;;;;;;;4936267;29;20449;-76
2022/10/17 09:43:44;;;;;;;13.80;5.30;;;;;;;;;;4935402;29;20046;-68
2022/10/17 09:46:20;;;;;;;18.95;5.82;;;;;;;;;;4936559;29;20028;-75
2022/10/17 09:49:16;;;;;;;14.55;4.72;;;;;;;;;;4936756;29;20032;-78
2022/10/17 09:51:42;;;;;;;10.27;5.20;;;;;;;;;;4936279;29;20035;-69
2022/10/17 09:54:32;;;;;;;11.15;5.30;;;;;;;;;;4936643;29;20046;-69
2022/10/17 09:57:08;;;;;;;11.32;4.72;;;;;;;;;;4936174;29;20058;-71
2022/10/17 09:59:36;;;;;;;9.13;3.95;;;;;;;;;;4927862;29;20132;-71
2022/10/17 10:02:15;;;;;;;6.32;4.60;;;;;;;;;;4917275;29;20463;-71
2022/10/17 10:05:03;;;;;;;4.90;3.60;;;;;;;;;;4921741;29;20139;-72
2022/10/17 10:07:38;;;;;;;8.48;4.35;;;;;;;;;;4933982;29;20531;-73
2022/10/17 10:10:21;;;;;;;5.40;3.88;;;;;;;;;;4918627;29;20487;-68
2022/10/17 10:13:17;;;;;;;6.38;4.30;;;;;;;;;;4951312;29;20375;-69
2022/10/17 10:15:45;;;;;;;13.82;5.75;;;;;;;;;;4952846;28;20039;-75
2022/10/17 10:18:23;;;;;;;8.98;5.00;;;;;;;;;;4935037;29;20078;-74
2022/10/17 10:21:09;;;;;;;9.05;4.60;;;;;;;;;;4934703;29;20067;-71
2022/10/17 10:23:40;;;;;;;7.00;4.20;;;;;;;;;;4933672;29;20042;-68
2022/10/17 10:26:28;;;;;;;6.35;3.78;;;;;;;;;;4933267;29;20066;-69
2022/10/17 10:28:59;;;;;;;4.95;3.92;;;;;;;;;;4934126;29;20036;-71
2022/10/17 10:31:36;;;;;;;7.57;4.70;;;;;;;;;;4934634;29;20123;-75
2022/10/17 10:34:24;;;;;;;7.05;4.35;;;;;;;;;;4933615;29;20028;-77
2022/10/17 10:37:02;;;;;;;9.35;4.43;;;;;;;;;;4935117;29;20471;-70
2022/10/17 10:39:48;;;;;;;8.90;4.78;;;;;;;;;;4935103;29;20354;-75
2022/10/17 10:42:36;;;;;;;6.45;4.22;;;;;;;;;;4934771;29;20388;-69
2022/10/17 10:45:21;;;;;;;7.18;4.30;;;;;;;;;;4934559;29;20039;-71
2022/10/17 10:47:59;;;;;;;9.57;5.13;;;;;;;;;;4935120;29;20491;-70
2022/10/17 10:50:35;;;;;;;6.00;3.78;;;;;;;;;;4935019;29;20043;-69
2022/10/17 10:53:16;;;;;;;8.32;4.30;;;;;;;;;;4934563;29;20385;-71
2022/10/17 10:55:53;;;;;;;8.52;3.90;;;;;;;;;;4934644;29;20130;-72
2022/10/17 10:58:53;;;;;;;8.18;4.13;;;;;;;;;;4934655;29;20035;-71
2022/10/17 11:01:19;;;;;;;6.82;4.07;;;;;;;;;;4934222;29;20047;-68
2022/10/17 11:04:08;;;;;;;16.17;5.15;;;;;;;;;;4934987;29;20178;-77
2022/10/17 11:06:36;;;;;;;6.78;3.90;;;;;;;;;;4934481;29;20510;-71
2022/10/17 11:09:36;;;;;;;6.75;4.30;;;;;;;;;;4935037;29;20106;-71
2022/10/17 11:12:11;;;;;;;7.93;4.95;;;;;;;;;;4935107;29;20123;-73
2022/10/17 11:14:55;;;;;;;9.25;4.60;;;;;;;;;;4934262;29;20032;-79
2022/10/17 11:17:21;;;;;;;9.25;4.68;;;;;;;;;;4934855;29;20070;-70
2022/10/17 11:20:03;;;;;;;5.57;4.53;;;;;;;;;;4934722;29;20422;-70
2022/10/17 11:22:35;;;;;;;7.68;4.68;;;;;;;;;;4933826;29;20427;-71
2022/10/17 11:25:05;;;;;;;6.78;4.53;;;;;;;;;;4934312;29;20043;-72
2022/10/17 11:27:34;;;;;;;5.07;3.65;;;;;;;;;;4934296;29;20031;-73
2022/10/17 11:30:00;;;;;;;6.80;4.20;;;;;;;;;;4934477;29;20042;-75
2022/10/17 11:32:38;;;;;;;6.22;4.43;;;;;;;;;;4934103;29;20083;-72
2022/10/17 11:35:27;;;;;;;5.32;3.53;;;;;;;;;;4934662;29;20175;-72
2022/10/17 11:38:17;;;;;;;5.30;3.53;;;;;;;;;;4934576;29;20036;-71
2022/10/17 11:40:51;;;;;;;7.25;3.60;;;;;;;;;;4934473;29;20039;-70
2022/10/17 11:43:31;;;;;;;7.18;4.28;;;;;;;;;;4934192;29;20046;-70
2022/10/17 11:46:20;;;;;;;8.18;4.22;;;;;;;;;;4934230;29;20035;-71
2022/10/17 11:49:07;;;;;;;10.05;3.75;;;;;;;;;;4933933;29;20439;-70
2022/10/17 11:52:12;;;;;;;8.30;4.10;;;;;;;;;;4934261;29;20139;-73
2022/10/17 11:54:49;;;;;;;8.52;3.78;;;;;;;;;;4934688;29;20042;-71
2022/10/17 11:57:15;;;;;;;6.95;4.28;;;;;;;;;;4933944;29;20048;-69
2022/10/17 12:00:10;;;;;;;4.93;3.58;;;;;;;;;;4934129;29;20110;-68
2022/10/17 12:02:59;;;;;;;5.15;3.90;;;;;;;;;;4934510;29;20106;-69
2022/10/17 12:05:30;;;;;;;6.65;4.00;;;;;;;;;;4934056;29;20490;-70
2022/10/17 12:08:12;;;;;;;6.38;3.60;;;;;;;;;;4934299;29;20071;-71
2022/10/17 12:10:44;;;;;;;5.57;3.80;;;;;;;;;;4934012;29;20107;-70
2022/10/17 12:13:28;;;;;;;9.57;4.28;;;;;;;;;;4935668;29;20043;-71
2022/10/17 12:15:55;;;;;;;5.97;3.53;;;;;;;;;;4938460;29;20466;-72
2022/10/17 12:18:26;;;;;;;5.32;3.88;;;;;;;;;;4938208;29;20106;-71
2022/10/17 12:20:59;;;;;;;7.18;4.10;;;;;;;;;;4937090;29;20047;-70
2022/10/17 12:23:30;;;;;;;6.45;4.25;;;;;;;;;;4936514;29;20123;-72
2022/10/17 12:26:03;;;;;;;6.80;4.13;;;;;;;;;;4937968;29;20451;-71
2022/10/17 12:28:42;;;;;;;6.03;3.70;;;;;;;;;;4936505;29;20084;-72
2022/10/17 12:31:22;;;;;;;5.75;3.75;;;;;;;;;;4938216;29;20051;-71
2022/10/17 12:34:03;;;;;;;7.38;3.50;;;;;;;;;;4938002;29;20140;-70
2022/10/17 12:36:28;;;;;;;8.27;4.35;;;;;;;;;;4937744;29;20111;-73
2022/10/17 12:39:00;;;;;;;8.02;3.80;;;;;;;;;;4933941;29;20119;-77
2022/10/17 12:41:38;;;;;;;5.97;3.53;;;;;;;;;;4925847;29;20031;-75
2022/10/17 12:44:13;;;;;;;7.05;4.15;;;;;;;;;;4918347;29;20372;-76
2022/10/17 12:46:48;;;;;;;6.43;3.63;;;;;;;;;;4928924;29;20044;-70
2022/10/17 12:49:23;;;;;;;7.30;4.00;;;;;;;;;;4918497;29;20028;-72
2022/10/17 12:52:20;;;;;;;5.78;3.92;;;;;;;;;;4922347;29;20043;-81
2022/10/17 12:55:11;;;;;;;9.57;4.18;;;;;;;;;;4913741;29;20103;-71
2022/10/17 12:57:46;;;;;;;8.23;3.83;;;;;;;;;;4935234;29;20439;-72
2022/10/17 13:00:20;;;;;;;9.93;4.13;;;;;;;;;;4932356;29;20110;-72
2022/10/17 13:02:48;;;;;;;6.50;4.13;;;;;;;;;;4918448;29;20487;-71
2022/10/17 13:05:29;;;;;;;6.88;3.72;;;;;;;;;;4917901;29;20082;-77
2022/10/17 13:07:58;;;;;;;6.80;3.17;;;;;;;;;;4921502;29;20044;-71
2022/10/17 13:10:28;;;;;;;7.18;3.17;;;;;;;;;;4937890;29;20486;-73
2022/10/17 13:13:07;;;;;;;9.05;3.40;;;;;;;;;;4937046;29;20038;-73
2022/10/17 13:15:35;;;;;;;6.97;3.30;;;;;;;;;;4936975;29;20059;-71
2022/10/17 13:18:01;;;;;;;5.60;2.90;;;;;;;;;;4928972;29;20105;-74
2022/10/17 13:20:28;;;;;;;6.15;2.92;;;;;;;;;;4917427;29;20119;-73
2022/10/17 13:22:56;;;;;;;6.72;3.10;;;;;;;;;;4917382;29;20036;-73
2022/10/17 13:25:24;;;;;;;4.63;3.08;;;;;;;;;;4917570;29;20039;-73
2022/10/17 13:28:01;;;;;;;4.65;2.58;;;;;;;;;;4917370;29;20112;-72
2022/10/17 13:30:30;;;;;;;4.47;3.20;;;;;;;;;;4918022;29;20519;-70
2022/10/17 13:32:56;;;;;;;4.88;2.75;;;;;;;;;;4918196;29;20032;-70
2022/10/17 13:35:29;;;;;;;3.55;2.90;;;;;;;;;;4916908;29;20037;-72
2022/10/17 13:37:56;;;;;;;3.75;2.50;;;;;;;;;;4917557;29;20039;-71
2022/10/17 13:40:25;;;;;;;6.22;2.80;;;;;;;;;;4918078;29;20394;-70
2022/10/17 13:42:54;;;;;;;4.25;2.80;;;;;;;;;;4917622;29;20047;-71
2022/10/17 13:45:31;;;;;;;5.82;2.80;;;;;;;;;;4917776;29;20052;-72
2022/10/17 13:48:04;;;;;;;3.65;2.75;;;;;;;;;;4917270;29;20036;-73
2022/10/17 13:50:31;;;;;;;5.68;3.17;;;;;;;;;;4917129;29;20071;-71
2022/10/17 13:53:16;;;;;;;5.13;3.35;;;;;;;;;;4917773;29;20024;-75
2022/10/17 13:56:19;;;;;;;5.95;3.10;;;;;;;;;;4917503;29;20502;-78
2022/10/17 13:58:50;;;;;;;6.90;3.80;;;;;;;;;;4915382;29;20139;-77
2022/10/17 14:01:19;;;;;;;6.32;3.20;;;;;;;;;;4917222;29;20480;-75
2022/10/17 14:03:47;;;;;;;4.65;3.35;;;;;;;;;;4935456;29;20060;-72
2022/10/17 14:06:24;;;;;;;5.85;3.33;;;;;;;;;;4936143;29;20036;-71
2022/10/17 14:09:01;;;;;;;4.03;2.90;;;;;;;;;;4935340;29;20039;-69
2022/10/17 14:11:32;;;;;;;5.00;2.63;;;;;;;;;;4953006;29;20046;-71
2022/10/17 14:13:59;;;;;;;5.10;2.70;;;;;;;;;;4944471;28;20038;-76
2022/10/17 14:16:32;;;;;;;4.80;3.20;;;;;;;;;;4935212;29;20359;-73
2022/10/17 14:18:58;;;;;;;5.63;2.97;;;;;;;;;;4934940;29;20095;-70
2022/10/17 14:21:28;;;;;;;4.60;2.58;;;;;;;;;;4935254;29;20052;-69
2022/10/17 14:24:13;;;;;;;4.35;2.58;;;;;;;;;;4935247;29;20031;-73
2022/10/17 14:26:50;;;;;;;4.97;2.60;;;;;;;;;;4934697;29;20150;-70
2022/10/17 14:29:25;;;;;;;5.28;2.88;;;;;;;;;;4935034;29;20035;-70
2022/10/17 14:32:18;;;;;;;3.20;2.40;;;;;;;;;;4935507;29;20118;-72
2022/10/17 14:34:45;;;;;;;7.10;3.20;;;;;;;;;;4931424;29;20479;-72
2022/10/17 14:37:45;;;;;;;6.85;3.00;;;;;;;;;;4934646;29;20023;-71
2022/10/17 14:40:22;;;;;;;5.80;2.88;;;;;;;;;;4928877;29;20079;-76
2022/10/17 14:42:50;;;;;;;6.88;2.78;;;;;;;;;;4935024;29;20055;-76
2022/10/17 14:45:30;;;;;;;5.78;3.80;;;;;;;;;;4935771;29;20036;-79
2022/10/17 14:48:02;;;;;;;5.38;3.53;;;;;;;;;;4934188;29;20035;-74
2022/10/17 14:50:30;;;;;;;6.18;3.88;;;;;;;;;;4934755;29;20510;-75
2022/10/17 14:53:19;;;;;;;6.47;3.38;;;;;;;;;;4934412;29;20038;-77
2022/10/17 14:56:00;;;;;;;5.10;3.92;;;;;;;;;;4935027;29;20059;-73
2022/10/17 14:58:29;;;;;;;6.97;3.22;;;;;;;;;;4933756;29;20035;-76
2022/10/17 15:00:56;;;;;;;5.13;3.88;;;;;;;;;;4931851;29;20028;-74
2022/10/17 15:03:23;;;;;;;7.93;3.90;;;;;;;;;;4924259;29;20475;-70
2022/10/17 15:05:50;;;;;;;8.68;4.00;;;;;;;;;;4919503;29;20086;-72